sensor_id;sensor_type;location;lat;lon;timestamp;P1;durP1;ratioP1;P2;durP2;ratioP2
37349;SDS011;23231;52.358;4.926;2022-11-24T00:02:40;16.42;;;4.20;;
37349;SDS011;23231;52.358;4.926;2022-11-24T00:07:40;21.63;;;4.82;;
37349;SDS011;23231;52.358;4.926;2022-11-24T00:12:41;21.30;;;4.10;;
37349;SDS011;23231;52.358;4.926;2022-11-24T00:17:41;18.27;;;3.47;;
37349;SDS011;23231;52.358;4.926;2022-11-24T00:22:41;17.00;;;3.80;;
37349;SDS011;23231;52.358;4.926;2022-11-24T00:27:42;15.20;;;3.10;;
37349;SDS011;23231;52.358;4.926;2022-11-24T00:32:42;17.80;;;3.00;;
37349;SDS011;23231;52.358;4.926;2022-11-24T00:37:42;18.08;;;3.42;;
37349;SDS011;23231;52.358;4.926;2022-11-24T00:42:43;15.77;;;3.08;;
37349;SDS011;23231;52.358;4.926;2022-11-24T00:47:43;11.55;;;3.30;;
37349;SDS011;23231;52.358;4.926;2022-11-24T00:52:44;14.27;;;3.13;;
37349;SDS011;23231;52.358;4.926;2022-11-24T00:57:44;22.15;;;3.30;;
37349;SDS011;23231;52.358;4.926;2022-11-24T01:02:44;16.00;;;3.13;;
37349;SDS011;23231;52.358;4.926;2022-11-24T01:07:45;7.57;;;2.92;;
37349;SDS011;23231;52.358;4.926;2022-11-24T01:12:45;17.75;;;3.78;;
37349;SDS011;23231;52.358;4.926;2022-11-24T01:17:46;20.85;;;3.88;;
37349;SDS011;23231;52.358;4.926;2022-11-24T01:22:47;24.25;;;4.40;;
37349;SDS011;23231;52.358;4.926;2022-11-24T01:27:48;18.08;;;3.70;;
37349;SDS011;23231;52.358;4.926;2022-11-24T01:32:48;18.08;;;3.60;;
37349;SDS011;23231;52.358;4.926;2022-11-24T01:37:48;18.38;;;3.67;;
37349;SDS011;23231;52.358;4.926;2022-11-24T01:42:50;15.40;;;3.57;;
37349;SDS011;23231;52.358;4.926;2022-11-24T01:47:51;11.43;;;3.50;;
37349;SDS011;23231;52.358;4.926;2022-11-24T01:52:52;15.02;;;2.95;;
37349;SDS011;23231;52.358;4.926;2022-11-24T01:57:57;19.08;;;3.50;;
37349;SDS011;23231;52.358;4.926;2022-11-24T02:03:01;16.20;;;3.30;;
37349;SDS011;23231;52.358;4.926;2022-11-24T02:08:02;16.77;;;4.68;;
37349;SDS011;23231;52.358;4.926;2022-11-24T02:13:03;21.30;;;3.40;;
37349;SDS011;23231;52.358;4.926;2022-11-24T02:18:03;14.17;;;3.03;;
37349;SDS011;23231;52.358;4.926;2022-11-24T02:23:23;15.88;;;3.10;;
37349;SDS011;23231;52.358;4.926;2022-11-24T02:28:30;14.02;;;3.58;;
37349;SDS011;23231;52.358;4.926;2022-11-24T02:33:32;14.20;;;3.20;;
37349;SDS011;23231;52.358;4.926;2022-11-24T02:38:33;16.40;;;2.90;;
37349;SDS011;23231;52.358;4.926;2022-11-24T02:43:36;18.98;;;3.17;;
37349;SDS011;23231;52.358;4.926;2022-11-24T02:48:47;15.07;;;3.10;;
37349;SDS011;23231;52.358;4.926;2022-11-24T02:53:47;15.23;;;3.75;;
37349;SDS011;23231;52.358;4.926;2022-11-24T02:58:48;14.23;;;3.00;;
37349;SDS011;23231;52.358;4.926;2022-11-24T03:03:48;14.73;;;3.00;;
37349;SDS011;23231;52.358;4.926;2022-11-24T03:08:48;19.27;;;3.67;;
37349;SDS011;23231;52.358;4.926;2022-11-24T03:13:49;13.27;;;3.00;;
37349;SDS011;23231;52.358;4.926;2022-11-24T03:18:50;13.57;;;2.80;;
37349;SDS011;23231;52.358;4.926;2022-11-24T03:23:51;12.25;;;3.20;;
37349;SDS011;23231;52.358;4.926;2022-11-24T03:28:53;13.17;;;2.93;;
37349;SDS011;23231;52.358;4.926;2022-11-24T03:33:54;11.13;;;2.97;;
37349;SDS011;23231;52.358;4.926;2022-11-24T03:38:55;14.07;;;2.88;;
37349;SDS011;23231;52.358;4.926;2022-11-24T03:43:55;12.57;;;2.72;;
37349;SDS011;23231;52.358;4.926;2022-11-24T03:48:56;11.40;;;2.47;;
37349;SDS011;23231;52.358;4.926;2022-11-24T03:53:56;14.60;;;2.97;;
37349;SDS011;23231;52.358;4.926;2022-11-24T03:58:56;13.20;;;2.85;;
37349;SDS011;23231;52.358;4.926;2022-11-24T04:03:57;11.48;;;2.75;;
37349;SDS011;23231;52.358;4.926;2022-11-24T04:08:58;12.03;;;2.60;;
37349;SDS011;23231;52.358;4.926;2022-11-24T04:13:59;12.35;;;2.45;;
37349;SDS011;23231;52.358;4.926;2022-11-24T04:18:59;10.30;;;2.47;;
37349;SDS011;23231;52.358;4.926;2022-11-24T04:24:00;6.23;;;2.10;;
37349;SDS011;23231;52.358;4.926;2022-11-24T04:29:00;9.77;;;2.55;;
37349;SDS011;23231;52.358;4.926;2022-11-24T04:34:00;11.70;;;2.50;;
37349;SDS011;23231;52.358;4.926;2022-11-24T04:39:01;11.63;;;2.72;;
37349;SDS011;23231;52.358;4.926;2022-11-24T04:44:01;7.97;;;2.10;;
37349;SDS011;23231;52.358;4.926;2022-11-24T04:49:01;7.13;;;1.85;;
37349;SDS011;23231;52.358;4.926;2022-11-24T04:54:02;7.63;;;2.10;;
37349;SDS011;23231;52.358;4.926;2022-11-24T04:59:02;9.07;;;2.63;;
37349;SDS011;23231;52.358;4.926;2022-11-24T05:04:03;9.18;;;3.03;;
37349;SDS011;23231;52.358;4.926;2022-11-24T05:09:03;9.85;;;2.60;;
37349;SDS011;23231;52.358;4.926;2022-11-24T05:14:05;12.48;;;3.85;;
37349;SDS011;23231;52.358;4.926;2022-11-24T05:19:05;9.32;;;2.60;;
37349;SDS011;23231;52.358;4.926;2022-11-24T05:24:06;6.43;;;2.47;;
37349;SDS011;23231;52.358;4.926;2022-11-24T05:29:06;8.57;;;1.60;;
37349;SDS011;23231;52.358;4.926;2022-11-24T05:34:07;6.05;;;1.30;;
37349;SDS011;23231;52.358;4.926;2022-11-24T05:39:09;5.80;;;1.40;;
37349;SDS011;23231;52.358;4.926;2022-11-24T05:44:09;6.57;;;1.20;;
37349;SDS011;23231;52.358;4.926;2022-11-24T05:49:09;5.30;;;1.00;;
37349;SDS011;23231;52.358;4.926;2022-11-24T05:54:10;3.28;;;0.75;;
37349;SDS011;23231;52.358;4.926;2022-11-24T05:59:10;4.82;;;1.05;;
37349;SDS011;23231;52.358;4.926;2022-11-24T06:04:11;3.37;;;0.80;;
37349;SDS011;23231;52.358;4.926;2022-11-24T06:09:11;4.90;;;0.80;;
37349;SDS011;23231;52.358;4.926;2022-11-24T06:14:12;5.47;;;1.20;;
37349;SDS011;23231;52.358;4.926;2022-11-24T06:19:13;3.80;;;1.77;;
37349;SDS011;23231;52.358;4.926;2022-11-24T06:24:13;4.72;;;1.10;;
37349;SDS011;23231;52.358;4.926;2022-11-24T06:29:15;8.00;;;1.30;;
37349;SDS011;23231;52.358;4.926;2022-11-24T06:34:15;5.47;;;1.20;;
37349;SDS011;23231;52.358;4.926;2022-11-24T06:39:15;4.30;;;1.13;;
37349;SDS011;23231;52.358;4.926;2022-11-24T06:44:16;5.50;;;1.20;;
37349;SDS011;23231;52.358;4.926;2022-11-24T06:49:16;5.37;;;1.17;;
37349;SDS011;23231;52.358;4.926;2022-11-24T06:54:17;11.73;;;1.40;;
37349;SDS011;23231;52.358;4.926;2022-11-24T06:59:20;6.23;;;1.37;;
37349;SDS011;23231;52.358;4.926;2022-11-24T07:04:20;5.70;;;1.53;;
37349;SDS011;23231;52.358;4.926;2022-11-24T07:09:20;7.37;;;2.13;;
37349;SDS011;23231;52.358;4.926;2022-11-24T07:14:21;10.53;;;3.37;;
37349;SDS011;23231;52.358;4.926;2022-11-24T07:19:21;10.20;;;3.53;;
37349;SDS011;23231;52.358;4.926;2022-11-24T07:24:22;13.63;;;4.30;;
37349;SDS011;23231;52.358;4.926;2022-11-24T07:29:22;8.73;;;3.90;;
37349;SDS011;23231;52.358;4.926;2022-11-24T07:34:22;13.17;;;4.93;;
37349;SDS011;23231;52.358;4.926;2022-11-24T07:39:23;15.30;;;6.53;;
37349;SDS011;23231;52.358;4.926;2022-11-24T07:44:23;16.25;;;6.90;;
37349;SDS011;23231;52.358;4.926;2022-11-24T07:49:23;12.10;;;6.50;;
37349;SDS011;23231;52.358;4.926;2022-11-24T07:54:24;14.73;;;7.73;;
37349;SDS011;23231;52.358;4.926;2022-11-24T07:59:24;14.27;;;7.40;;
37349;SDS011;23231;52.358;4.926;2022-11-24T08:04:25;13.52;;;6.85;;
37349;SDS011;23231;52.358;4.926;2022-11-24T08:09:25;14.03;;;7.00;;
37349;SDS011;23231;52.358;4.926;2022-11-24T08:14:25;13.82;;;7.30;;
37349;SDS011;23231;52.358;4.926;2022-11-24T08:19:26;15.90;;;6.83;;
37349;SDS011;23231;52.358;4.926;2022-11-24T08:24:26;18.83;;;6.88;;
37349;SDS011;23231;52.358;4.926;2022-11-24T08:29:27;17.88;;;7.32;;
37349;SDS011;23231;52.358;4.926;2022-11-24T08:34:28;16.25;;;6.85;;
37349;SDS011;23231;52.358;4.926;2022-11-24T08:39:29;17.70;;;7.90;;
37349;SDS011;23231;52.358;4.926;2022-11-24T08:44:29;17.73;;;6.95;;
37349;SDS011;23231;52.358;4.926;2022-11-24T08:49:30;20.45;;;7.90;;
37349;SDS011;23231;52.358;4.926;2022-11-24T08:54:31;14.68;;;6.68;;
37349;SDS011;23231;52.358;4.926;2022-11-24T08:59:31;17.27;;;6.32;;
37349;SDS011;23231;52.358;4.926;2022-11-24T09:04:31;19.17;;;5.88;;
37349;SDS011;23231;52.358;4.926;2022-11-24T09:09:32;15.05;;;6.35;;
37349;SDS011;23231;52.358;4.926;2022-11-24T09:14:32;16.02;;;5.15;;
37349;SDS011;23231;52.358;4.926;2022-11-24T09:19:32;16.00;;;6.03;;
37349;SDS011;23231;52.358;4.926;2022-11-24T09:24:33;16.23;;;6.30;;
37349;SDS011;23231;52.358;4.926;2022-11-24T09:29:33;14.43;;;5.35;;
37349;SDS011;23231;52.358;4.926;2022-11-24T09:34:34;17.08;;;4.85;;
37349;SDS011;23231;52.358;4.926;2022-11-24T09:39:34;13.80;;;5.03;;
37349;SDS011;23231;52.358;4.926;2022-11-24T09:50:33;15.45;;;5.40;;
37349;SDS011;23231;52.358;4.926;2022-11-24T09:55:50;19.55;;;5.30;;
37349;SDS011;23231;52.358;4.926;2022-11-24T10:00:52;12.23;;;4.53;;
37349;SDS011;23231;52.358;4.926;2022-11-24T10:05:53;12.50;;;3.75;;
37349;SDS011;23231;52.358;4.926;2022-11-24T10:11:01;18.05;;;4.05;;
37349;SDS011;23231;52.358;4.926;2022-11-24T10:26:55;12.75;;;3.50;;
37349;SDS011;23231;52.358;4.926;2022-11-24T10:31:58;11.20;;;3.03;;
37349;SDS011;23231;52.358;4.926;2022-11-24T10:42:14;11.80;;;2.65;;
37349;SDS011;23231;52.358;4.926;2022-11-24T10:47:19;15.43;;;2.85;;
37349;SDS011;23231;52.358;4.926;2022-11-24T10:52:21;13.15;;;3.03;;
37349;SDS011;23231;52.358;4.926;2022-11-24T10:57:26;13.02;;;2.97;;
37349;SDS011;23231;52.358;4.926;2022-11-24T11:02:35;12.38;;;2.63;;
37349;SDS011;23231;52.358;4.926;2022-11-24T11:07:36;11.57;;;2.22;;
37349;SDS011;23231;52.358;4.926;2022-11-24T11:12:37;16.23;;;2.90;;
37349;SDS011;23231;52.358;4.926;2022-11-24T11:17:37;10.38;;;2.20;;
37349;SDS011;23231;52.358;4.926;2022-11-24T11:22:38;15.82;;;3.63;;
37349;SDS011;23231;52.358;4.926;2022-11-24T11:27:42;13.90;;;2.70;;
37349;SDS011;23231;52.358;4.926;2022-11-24T11:32:56;14.50;;;2.90;;
37349;SDS011;23231;52.358;4.926;2022-11-24T11:37:58;11.88;;;3.03;;
37349;SDS011;23231;52.358;4.926;2022-11-24T11:43:37;11.98;;;2.33;;
37349;SDS011;23231;52.358;4.926;2022-11-24T11:48:37;17.15;;;3.65;;
37349;SDS011;23231;52.358;4.926;2022-11-24T11:53:39;12.73;;;3.22;;
37349;SDS011;23231;52.358;4.926;2022-11-24T12:04:00;13.55;;;2.95;;
37349;SDS011;23231;52.358;4.926;2022-11-24T12:14:30;15.85;;;2.60;;
37349;SDS011;23231;52.358;4.926;2022-11-24T12:25:03;15.70;;;3.40;;
37349;SDS011;23231;52.358;4.926;2022-11-24T12:30:22;16.80;;;3.28;;
37349;SDS011;23231;52.358;4.926;2022-11-24T12:35:24;15.45;;;2.83;;
37349;SDS011;23231;52.358;4.926;2022-11-24T12:51:24;14.52;;;3.30;;
37349;SDS011;23231;52.358;4.926;2022-11-24T12:56:35;13.32;;;3.20;;
37349;SDS011;23231;52.358;4.926;2022-11-24T13:01:45;14.60;;;3.38;;
37349;SDS011;23231;52.358;4.926;2022-11-24T13:07:03;14.90;;;3.28;;
37349;SDS011;23231;52.358;4.926;2022-11-24T13:12:12;14.95;;;3.70;;
37349;SDS011;23231;52.358;4.926;2022-11-24T13:17:28;16.17;;;3.22;;
37349;SDS011;23231;52.358;4.926;2022-11-24T13:22:30;21.67;;;3.10;;
37349;SDS011;23231;52.358;4.926;2022-11-24T13:27:44;16.35;;;3.15;;
37349;SDS011;23231;52.358;4.926;2022-11-24T13:32:56;14.70;;;3.42;;
37349;SDS011;23231;52.358;4.926;2022-11-24T13:38:46;19.30;;;3.50;;
37349;SDS011;23231;52.358;4.926;2022-11-24T13:49:18;15.40;;;3.42;;
37349;SDS011;23231;52.358;4.926;2022-11-24T13:54:19;16.35;;;3.67;;
37349;SDS011;23231;52.358;4.926;2022-11-24T13:59:27;16.75;;;3.22;;
37349;SDS011;23231;52.358;4.926;2022-11-24T14:04:32;15.77;;;4.03;;
37349;SDS011;23231;52.358;4.926;2022-11-24T14:14:49;17.63;;;3.85;;
37349;SDS011;23231;52.358;4.926;2022-11-24T14:19:52;16.73;;;3.25;;
37349;SDS011;23231;52.358;4.926;2022-11-24T14:24:57;16.08;;;3.25;;
37349;SDS011;23231;52.358;4.926;2022-11-24T14:35:25;18.15;;;4.15;;
37349;SDS011;23231;52.358;4.926;2022-11-24T14:40:44;16.77;;;3.65;;
37349;SDS011;23231;52.358;4.926;2022-11-24T14:46:08;16.92;;;4.20;;
37349;SDS011;23231;52.358;4.926;2022-11-24T15:01:34;18.48;;;3.67;;
37349;SDS011;23231;52.358;4.926;2022-11-24T15:06:35;11.95;;;3.28;;
37349;SDS011;23231;52.358;4.926;2022-11-24T15:11:35;22.85;;;4.03;;
37349;SDS011;23231;52.358;4.926;2022-11-24T15:16:37;16.67;;;4.10;;
37349;SDS011;23231;52.358;4.926;2022-11-24T15:21:38;18.15;;;4.20;;
37349;SDS011;23231;52.358;4.926;2022-11-24T15:26:39;16.77;;;3.67;;
37349;SDS011;23231;52.358;4.926;2022-11-24T15:31:40;19.92;;;4.30;;
37349;SDS011;23231;52.358;4.926;2022-11-24T15:36:41;23.75;;;3.95;;
37349;SDS011;23231;52.358;4.926;2022-11-24T15:41:41;16.92;;;4.43;;
37349;SDS011;23231;52.358;4.926;2022-11-24T15:46:42;21.98;;;4.30;;
37349;SDS011;23231;52.358;4.926;2022-11-24T15:51:43;15.43;;;3.67;;
37349;SDS011;23231;52.358;4.926;2022-11-24T15:56:44;14.38;;;3.90;;
37349;SDS011;23231;52.358;4.926;2022-11-24T16:01:45;14.45;;;3.20;;
37349;SDS011;23231;52.358;4.926;2022-11-24T16:06:48;15.38;;;3.30;;
37349;SDS011;23231;52.358;4.926;2022-11-24T16:11:48;19.75;;;4.63;;
37349;SDS011;23231;52.358;4.926;2022-11-24T16:16:49;14.73;;;3.20;;
37349;SDS011;23231;52.358;4.926;2022-11-24T16:21:49;13.32;;;3.17;;
37349;SDS011;23231;52.358;4.926;2022-11-24T16:26:50;15.77;;;3.28;;
37349;SDS011;23231;52.358;4.926;2022-11-24T16:31:50;17.52;;;3.70;;
37349;SDS011;23231;52.358;4.926;2022-11-24T16:36:51;16.83;;;3.28;;
37349;SDS011;23231;52.358;4.926;2022-11-24T16:41:51;23.02;;;5.57;;
37349;SDS011;23231;52.358;4.926;2022-11-24T16:46:52;16.55;;;3.25;;
37349;SDS011;23231;52.358;4.926;2022-11-24T16:51:52;16.50;;;3.35;;
37349;SDS011;23231;52.358;4.926;2022-11-24T16:56:53;16.17;;;3.97;;
37349;SDS011;23231;52.358;4.926;2022-11-24T17:01:54;14.52;;;3.33;;
37349;SDS011;23231;52.358;4.926;2022-11-24T17:06:54;14.15;;;3.42;;
37349;SDS011;23231;52.358;4.926;2022-11-24T17:11:57;23.10;;;3.42;;
37349;SDS011;23231;52.358;4.926;2022-11-24T17:16:57;17.08;;;3.78;;
37349;SDS011;23231;52.358;4.926;2022-11-24T17:21:58;15.95;;;5.38;;
37349;SDS011;23231;52.358;4.926;2022-11-24T17:26:58;16.08;;;4.40;;
37349;SDS011;23231;52.358;4.926;2022-11-24T17:31:59;13.32;;;3.63;;
37349;SDS011;23231;52.358;4.926;2022-11-24T17:36:59;13.85;;;3.40;;
37349;SDS011;23231;52.358;4.926;2022-11-24T17:41:59;13.15;;;3.20;;
37349;SDS011;23231;52.358;4.926;2022-11-24T17:47:00;16.15;;;4.18;;
37349;SDS011;23231;52.358;4.926;2022-11-24T17:52:00;16.30;;;3.50;;
37349;SDS011;23231;52.358;4.926;2022-11-24T17:57:01;17.67;;;3.35;;
37349;SDS011;23231;52.358;4.926;2022-11-24T18:02:01;18.75;;;3.95;;
37349;SDS011;23231;52.358;4.926;2022-11-24T18:07:01;16.40;;;3.38;;
37349;SDS011;23231;52.358;4.926;2022-11-24T18:12:02;15.80;;;3.72;;
37349;SDS011;23231;52.358;4.926;2022-11-24T18:17:03;12.95;;;3.35;;
37349;SDS011;23231;52.358;4.926;2022-11-24T18:22:03;21.33;;;4.25;;
37349;SDS011;23231;52.358;4.926;2022-11-24T18:27:04;12.52;;;3.80;;
37349;SDS011;23231;52.358;4.926;2022-11-24T18:32:04;16.83;;;3.75;;
37349;SDS011;23231;52.358;4.926;2022-11-24T18:37:05;13.35;;;3.75;;
37349;SDS011;23231;52.358;4.926;2022-11-24T18:42:07;17.67;;;3.63;;
37349;SDS011;23231;52.358;4.926;2022-11-24T18:47:08;16.17;;;3.60;;
37349;SDS011;23231;52.358;4.926;2022-11-24T18:52:08;16.35;;;3.80;;
37349;SDS011;23231;52.358;4.926;2022-11-24T18:57:09;17.17;;;3.88;;
37349;SDS011;23231;52.358;4.926;2022-11-24T19:02:09;20.45;;;3.67;;
37349;SDS011;23231;52.358;4.926;2022-11-24T19:07:11;14.73;;;3.78;;
37349;SDS011;23231;52.358;4.926;2022-11-24T19:12:11;17.63;;;3.92;;
37349;SDS011;23231;52.358;4.926;2022-11-24T19:17:11;16.50;;;3.45;;
37349;SDS011;23231;52.358;4.926;2022-11-24T19:22:12;15.20;;;3.67;;
37349;SDS011;23231;52.358;4.926;2022-11-24T19:27:14;20.02;;;4.35;;
37349;SDS011;23231;52.358;4.926;2022-11-24T19:32:15;19.20;;;4.05;;
37349;SDS011;23231;52.358;4.926;2022-11-24T19:37:18;16.98;;;4.05;;
37349;SDS011;23231;52.358;4.926;2022-11-24T19:42:18;17.40;;;4.00;;
37349;SDS011;23231;52.358;4.926;2022-11-24T19:47:19;12.50;;;3.70;;
37349;SDS011;23231;52.358;4.926;2022-11-24T19:52:19;14.30;;;3.95;;
37349;SDS011;23231;52.358;4.926;2022-11-24T19:57:19;13.25;;;4.40;;
37349;SDS011;23231;52.358;4.926;2022-11-24T20:02:20;13.43;;;4.15;;
37349;SDS011;23231;52.358;4.926;2022-11-24T20:07:20;18.08;;;4.18;;
37349;SDS011;23231;52.358;4.926;2022-11-24T20:12:20;11.27;;;3.50;;
37349;SDS011;23231;52.358;4.926;2022-11-24T20:17:21;14.18;;;3.50;;
37349;SDS011;23231;52.358;4.926;2022-11-24T20:22:21;16.20;;;4.65;;
37349;SDS011;23231;52.358;4.926;2022-11-24T20:27:22;19.48;;;3.80;;
37349;SDS011;23231;52.358;4.926;2022-11-24T20:32:22;17.33;;;3.55;;
37349;SDS011;23231;52.358;4.926;2022-11-24T20:37:22;14.32;;;3.85;;
37349;SDS011;23231;52.358;4.926;2022-11-24T20:42:23;13.88;;;3.88;;
37349;SDS011;23231;52.358;4.926;2022-11-24T20:47:23;15.82;;;3.58;;
37349;SDS011;23231;52.358;4.926;2022-11-24T20:52:24;13.50;;;2.97;;
37349;SDS011;23231;52.358;4.926;2022-11-24T20:57:24;19.95;;;3.80;;
37349;SDS011;23231;52.358;4.926;2022-11-24T21:02:25;8.68;;;3.33;;
37349;SDS011;23231;52.358;4.926;2022-11-24T21:07:25;9.68;;;3.20;;
37349;SDS011;23231;52.358;4.926;2022-11-24T21:12:25;12.90;;;3.40;;
37349;SDS011;23231;52.358;4.926;2022-11-24T21:17:26;17.73;;;3.67;;
37349;SDS011;23231;52.358;4.926;2022-11-24T21:22:26;10.73;;;3.55;;
37349;SDS011;23231;52.358;4.926;2022-11-24T21:27:26;19.95;;;4.03;;
37349;SDS011;23231;52.358;4.926;2022-11-24T21:32:27;14.85;;;4.20;;
37349;SDS011;23231;52.358;4.926;2022-11-24T21:37:28;16.67;;;3.08;;
37349;SDS011;23231;52.358;4.926;2022-11-24T21:42:28;17.05;;;3.65;;
37349;SDS011;23231;52.358;4.926;2022-11-24T21:47:29;16.70;;;4.30;;
37349;SDS011;23231;52.358;4.926;2022-11-24T21:52:29;19.35;;;4.47;;
37349;SDS011;23231;52.358;4.926;2022-11-24T21:57:30;11.35;;;3.60;;
37349;SDS011;23231;52.358;4.926;2022-11-24T22:02:30;18.98;;;3.90;;
37349;SDS011;23231;52.358;4.926;2022-11-24T22:07:31;16.20;;;4.53;;
37349;SDS011;23231;52.358;4.926;2022-11-24T22:12:31;13.73;;;3.38;;
37349;SDS011;23231;52.358;4.926;2022-11-24T22:17:31;16.83;;;3.90;;
37349;SDS011;23231;52.358;4.926;2022-11-24T22:22:32;15.13;;;3.53;;
37349;SDS011;23231;52.358;4.926;2022-11-24T22:27:32;16.33;;;4.28;;
37349;SDS011;23231;52.358;4.926;2022-11-24T22:32:32;16.27;;;4.43;;
37349;SDS011;23231;52.358;4.926;2022-11-24T22:37:33;16.15;;;3.50;;
37349;SDS011;23231;52.358;4.926;2022-11-24T22:42:33;17.55;;;3.53;;
37349;SDS011;23231;52.358;4.926;2022-11-24T22:47:33;13.38;;;3.83;;
37349;SDS011;23231;52.358;4.926;2022-11-24T22:52:34;11.60;;;3.60;;
37349;SDS011;23231;52.358;4.926;2022-11-24T22:57:36;14.07;;;4.00;;
37349;SDS011;23231;52.358;4.926;2022-11-24T23:02:36;19.23;;;3.70;;
37349;SDS011;23231;52.358;4.926;2022-11-24T23:07:37;20.27;;;3.88;;
37349;SDS011;23231;52.358;4.926;2022-11-24T23:12:37;18.73;;;3.97;;
37349;SDS011;23231;52.358;4.926;2022-11-24T23:17:37;18.10;;;3.75;;
37349;SDS011;23231;52.358;4.926;2022-11-24T23:22:38;15.57;;;4.22;;
37349;SDS011;23231;52.358;4.926;2022-11-24T23:27:38;15.82;;;4.20;;
37349;SDS011;23231;52.358;4.926;2022-11-24T23:32:38;17.05;;;4.60;;
37349;SDS011;23231;52.358;4.926;2022-11-24T23:37:39;16.42;;;4.53;;
37349;SDS011;23231;52.358;4.926;2022-11-24T23:42:40;14.20;;;5.00;;
37349;SDS011;23231;52.358;4.926;2022-11-24T23:47:41;19.95;;;4.88;;
37349;SDS011;23231;52.358;4.926;2022-11-24T23:52:41;14.73;;;4.03;;
37349;SDS011;23231;52.358;4.926;2022-11-24T23:57:41;19.17;;;5.03;;
